sensor_id;sensor_type;location;lat;lon;timestamp;temperature;humidity
14749;DHT22;7466;53.574;9.976;2024-01-10T00:01:05;-4.90;99.90
14749;DHT22;7466;53.574;9.976;2024-01-10T00:03:32;-5.00;99.90
14749;DHT22;7466;53.574;9.976;2024-01-10T00:05:59;-5.00;99.90
14749;DHT22;7466;53.574;9.976;2024-01-10T00:08:26;-5.00;99.90
14749;DHT22;7466;53.574;9.976;2024-01-10T00:10:53;-5.00;99.90
14749;DHT22;7466;53.574;9.976;2024-01-10T00:13:20;-5.00;99.90
14749;DHT22;7466;53.574;9.976;2024-01-10T00:15:49;-5.00;99.90
14749;DHT22;7466;53.574;9.976;2024-01-10T00:18:18;-5.10;99.90
14749;DHT22;7466;53.574;9.976;2024-01-10T00:20:45;-5.00;99.90
14749;DHT22;7466;53.574;9.976;2024-01-10T00:23:13;-5.10;99.90
14749;DHT22;7466;53.574;9.976;2024-01-10T00:25:40;-5.10;99.90
14749;DHT22;7466;53.574;9.976;2024-01-10T00:28:07;-5.10;99.90
14749;DHT22;7466;53.574;9.976;2024-01-10T00:30:34;-5.00;99.90
14749;DHT22;7466;53.574;9.976;2024-01-10T00:33:01;-5.10;99.90
14749;DHT22;7466;53.574;9.976;2024-01-10T00:35:30;-5.20;99.90
14749;DHT22;7466;53.574;9.976;2024-01-10T00:37:57;-5.10;99.90
14749;DHT22;7466;53.574;9.976;2024-01-10T00:40:25;-5.10;99.90
14749;DHT22;7466;53.574;9.976;2024-01-10T00:42:52;-5.20;99.90
14749;DHT22;7466;53.574;9.976;2024-01-10T00:45:19;-5.20;99.90
14749;DHT22;7466;53.574;9.976;2024-01-10T00:47:48;-5.30;99.90
14749;DHT22;7466;53.574;9.976;2024-01-10T00:50:16;-5.30;99.90
14749;DHT22;7466;53.574;9.976;2024-01-10T00:52:45;-5.30;99.90
14749;DHT22;7466;53.574;9.976;2024-01-10T00:55:12;-5.30;99.90
14749;DHT22;7466;53.574;9.976;2024-01-10T00:57:40;-5.30;99.90
14749;DHT22;7466;53.574;9.976;2024-01-10T01:00:08;-5.30;99.90
14749;DHT22;7466;53.574;9.976;2024-01-10T01:02:36;-5.30;99.90
14749;DHT22;7466;53.574;9.976;2024-01-10T01:05:06;-5.20;99.90
14749;DHT22;7466;53.574;9.976;2024-01-10T01:07:36;-5.30;99.90
14749;DHT22;7466;53.574;9.976;2024-01-10T01:10:06;-5.30;99.90
14749;DHT22;7466;53.574;9.976;2024-01-10T01:12:34;-5.30;99.90
14749;DHT22;7466;53.574;9.976;2024-01-10T01:15:01;-5.30;99.90
14749;DHT22;7466;53.574;9.976;2024-01-10T01:17:28;-5.40;99.90
14749;DHT22;7466;53.574;9.976;2024-01-10T01:19:55;-5.40;99.90
14749;DHT22;7466;53.574;9.976;2024-01-10T01:22:23;-5.30;99.90
14749;DHT22;7466;53.574;9.976;2024-01-10T01:24:50;-5.40;99.90
14749;DHT22;7466;53.574;9.976;2024-01-10T01:27:18;-5.40;99.90
14749;DHT22;7466;53.574;9.976;2024-01-10T01:29:45;-5.40;99.90
14749;DHT22;7466;53.574;9.976;2024-01-10T01:32:12;-5.40;99.90
14749;DHT22;7466;53.574;9.976;2024-01-10T01:34:39;-5.40;99.90
14749;DHT22;7466;53.574;9.976;2024-01-10T01:37:07;-5.30;99.90
14749;DHT22;7466;53.574;9.976;2024-01-10T01:39:34;-5.30;99.90
14749;DHT22;7466;53.574;9.976;2024-01-10T01:42:01;-5.30;99.90
14749;DHT22;7466;53.574;9.976;2024-01-10T01:44:30;-5.30;99.90
14749;DHT22;7466;53.574;9.976;2024-01-10T01:46:59;-5.30;99.90
14749;DHT22;7466;53.574;9.976;2024-01-10T01:49:26;-5.40;99.90
14749;DHT22;7466;53.574;9.976;2024-01-10T01:51:54;-5.40;99.90
14749;DHT22;7466;53.574;9.976;2024-01-10T01:54:21;-5.30;99.90
14749;DHT22;7466;53.574;9.976;2024-01-10T01:56:49;-5.30;99.90
14749;DHT22;7466;53.574;9.976;2024-01-10T01:59:17;-5.30;99.90
14749;DHT22;7466;53.574;9.976;2024-01-10T02:01:45;-5.30;99.90
14749;DHT22;7466;53.574;9.976;2024-01-10T02:04:13;-5.20;99.90
14749;DHT22;7466;53.574;9.976;2024-01-10T02:06:40;-5.20;99.90
14749;DHT22;7466;53.574;9.976;2024-01-10T02:09:07;-5.20;99.90
14749;DHT22;7466;53.574;9.976;2024-01-10T02:11:35;-5.20;99.90
14749;DHT22;7466;53.574;9.976;2024-01-10T02:14:02;-5.20;99.90
14749;DHT22;7466;53.574;9.976;2024-01-10T02:16:30;-5.10;99.90
14749;DHT22;7466;53.574;9.976;2024-01-10T02:18:58;-5.10;99.90
14749;DHT22;7466;53.574;9.976;2024-01-10T02:21:26;-5.10;99.90
14749;DHT22;7466;53.574;9.976;2024-01-10T02:23:53;-5.10;99.90
14749;DHT22;7466;53.574;9.976;2024-01-10T02:26:22;-5.10;99.90
14749;DHT22;7466;53.574;9.976;2024-01-10T02:28:49;-5.00;99.90
14749;DHT22;7466;53.574;9.976;2024-01-10T02:31:16;-5.00;99.90
14749;DHT22;7466;53.574;9.976;2024-01-10T02:33:43;-5.00;99.90
14749;DHT22;7466;53.574;9.976;2024-01-10T02:36:11;-5.00;99.90
14749;DHT22;7466;53.574;9.976;2024-01-10T02:38:39;-5.00;99.90
14749;DHT22;7466;53.574;9.976;2024-01-10T02:41:06;-5.00;99.90
14749;DHT22;7466;53.574;9.976;2024-01-10T02:43:34;-4.90;99.90
14749;DHT22;7466;53.574;9.976;2024-01-10T02:46:02;-5.00;99.90
14749;DHT22;7466;53.574;9.976;2024-01-10T02:48:29;-5.00;99.90
14749;DHT22;7466;53.574;9.976;2024-01-10T02:50:56;-5.00;99.90
14749;DHT22;7466;53.574;9.976;2024-01-10T02:53:26;-4.90;99.90
14749;DHT22;7466;53.574;9.976;2024-01-10T02:55:53;-4.90;99.90
14749;DHT22;7466;53.574;9.976;2024-01-10T02:58:20;-4.90;99.90
14749;DHT22;7466;53.574;9.976;2024-01-10T03:00:52;-4.90;99.90
14749;DHT22;7466;53.574;9.976;2024-01-10T03:03:19;-4.90;99.90
14749;DHT22;7466;53.574;9.976;2024-01-10T03:05:46;-4.90;99.90
14749;DHT22;7466;53.574;9.976;2024-01-10T03:08:13;-4.80;99.90
14749;DHT22;7466;53.574;9.976;2024-01-10T03:10:40;-4.80;99.90
14749;DHT22;7466;53.574;9.976;2024-01-10T03:13:07;-4.80;99.90
14749;DHT22;7466;53.574;9.976;2024-01-10T03:15:34;-4.80;99.90
14749;DHT22;7466;53.574;9.976;2024-01-10T03:18:02;-4.80;99.90
14749;DHT22;7466;53.574;9.976;2024-01-10T03:20:29;-4.80;99.90
14749;DHT22;7466;53.574;9.976;2024-01-10T03:22:56;-4.90;99.90
14749;DHT22;7466;53.574;9.976;2024-01-10T03:25:23;-4.80;99.90
14749;DHT22;7466;53.574;9.976;2024-01-10T03:27:51;-4.80;99.90
14749;DHT22;7466;53.574;9.976;2024-01-10T03:30:18;-4.80;99.90
14749;DHT22;7466;53.574;9.976;2024-01-10T03:32:45;-4.80;99.90
14749;DHT22;7466;53.574;9.976;2024-01-10T03:35:14;-4.80;99.90
14749;DHT22;7466;53.574;9.976;2024-01-10T03:37:41;-4.70;99.90
14749;DHT22;7466;53.574;9.976;2024-01-10T03:40:09;-4.70;99.90
14749;DHT22;7466;53.574;9.976;2024-01-10T03:42:36;-4.70;99.90
14749;DHT22;7466;53.574;9.976;2024-01-10T03:45:04;-4.70;99.90
14749;DHT22;7466;53.574;9.976;2024-01-10T03:47:32;-4.70;99.90
14749;DHT22;7466;53.574;9.976;2024-01-10T03:49:59;-4.70;99.90
14749;DHT22;7466;53.574;9.976;2024-01-10T03:52:27;-4.70;99.90
14749;DHT22;7466;53.574;9.976;2024-01-10T03:54:54;-4.60;99.90
14749;DHT22;7466;53.574;9.976;2024-01-10T03:57:21;-4.60;99.90
14749;DHT22;7466;53.574;9.976;2024-01-10T03:59:55;-4.60;99.90
14749;DHT22;7466;53.574;9.976;2024-01-10T04:02:22;-4.60;99.90
14749;DHT22;7466;53.574;9.976;2024-01-10T04:04:48;-4.60;99.90
14749;DHT22;7466;53.574;9.976;2024-01-10T04:07:15;-4.60;99.90
14749;DHT22;7466;53.574;9.976;2024-01-10T04:09:44;-4.50;99.90
14749;DHT22;7466;53.574;9.976;2024-01-10T04:12:11;-4.50;99.90
14749;DHT22;7466;53.574;9.976;2024-01-10T04:14:38;-4.40;99.90
14749;DHT22;7466;53.574;9.976;2024-01-10T04:17:05;-4.40;99.90
14749;DHT22;7466;53.574;9.976;2024-01-10T04:19:32;-4.30;99.90
14749;DHT22;7466;53.574;9.976;2024-01-10T04:22:00;-4.30;99.90
14749;DHT22;7466;53.574;9.976;2024-01-10T04:24:27;-4.30;99.90
14749;DHT22;7466;53.574;9.976;2024-01-10T04:26:57;-4.30;99.90
14749;DHT22;7466;53.574;9.976;2024-01-10T04:29:24;-4.20;99.90
14749;DHT22;7466;53.574;9.976;2024-01-10T04:31:51;-4.20;99.90
14749;DHT22;7466;53.574;9.976;2024-01-10T04:34:19;-4.20;99.90
14749;DHT22;7466;53.574;9.976;2024-01-10T04:36:48;-4.10;99.90
14749;DHT22;7466;53.574;9.976;2024-01-10T04:39:15;-4.10;99.90
14749;DHT22;7466;53.574;9.976;2024-01-10T04:41:42;-4.10;99.90
14749;DHT22;7466;53.574;9.976;2024-01-10T04:44:10;-4.00;99.90
14749;DHT22;7466;53.574;9.976;2024-01-10T04:46:37;-4.00;99.90
14749;DHT22;7466;53.574;9.976;2024-01-10T04:49:05;-3.90;99.90
14749;DHT22;7466;53.574;9.976;2024-01-10T04:51:32;-3.90;99.90
14749;DHT22;7466;53.574;9.976;2024-01-10T04:54:00;-3.80;99.90
14749;DHT22;7466;53.574;9.976;2024-01-10T04:56:27;-3.80;99.90
14749;DHT22;7466;53.574;9.976;2024-01-10T04:58:54;-3.80;99.90
14749;DHT22;7466;53.574;9.976;2024-01-10T05:01:22;-3.80;99.90
14749;DHT22;7466;53.574;9.976;2024-01-10T05:03:49;-3.70;99.90
14749;DHT22;7466;53.574;9.976;2024-01-10T05:06:16;-3.70;99.90
14749;DHT22;7466;53.574;9.976;2024-01-10T05:08:43;-3.60;99.90
14749;DHT22;7466;53.574;9.976;2024-01-10T05:11:10;-3.60;99.90
14749;DHT22;7466;53.574;9.976;2024-01-10T05:13:37;-3.60;99.90
14749;DHT22;7466;53.574;9.976;2024-01-10T05:16:05;-3.60;99.90
14749;DHT22;7466;53.574;9.976;2024-01-10T05:18:34;-3.60;99.90
14749;DHT22;7466;53.574;9.976;2024-01-10T05:21:01;-3.60;99.90
14749;DHT22;7466;53.574;9.976;2024-01-10T05:23:29;-3.60;99.90
14749;DHT22;7466;53.574;9.976;2024-01-10T05:25:57;-3.60;99.90
14749;DHT22;7466;53.574;9.976;2024-01-10T05:28:24;-3.60;99.90
14749;DHT22;7466;53.574;9.976;2024-01-10T05:30:51;-3.60;99.90
14749;DHT22;7466;53.574;9.976;2024-01-10T05:33:17;-3.60;99.90
14749;DHT22;7466;53.574;9.976;2024-01-10T05:35:48;-3.70;99.90
14749;DHT22;7466;53.574;9.976;2024-01-10T05:38:15;-3.70;99.90
14749;DHT22;7466;53.574;9.976;2024-01-10T05:40:42;-3.70;99.90
14749;DHT22;7466;53.574;9.976;2024-01-10T05:43:10;-3.70;99.90
14749;DHT22;7466;53.574;9.976;2024-01-10T05:45:37;-3.70;99.90
14749;DHT22;7466;53.574;9.976;2024-01-10T05:48:04;-3.70;99.90
14749;DHT22;7466;53.574;9.976;2024-01-10T05:50:37;-3.70;99.90
14749;DHT22;7466;53.574;9.976;2024-01-10T05:53:06;-3.70;99.90
14749;DHT22;7466;53.574;9.976;2024-01-10T05:55:34;-3.70;99.90
14749;DHT22;7466;53.574;9.976;2024-01-10T05:58:02;-3.70;99.90
14749;DHT22;7466;53.574;9.976;2024-01-10T06:00:30;-3.70;99.90
14749;DHT22;7466;53.574;9.976;2024-01-10T06:02:57;-3.60;99.90
14749;DHT22;7466;53.574;9.976;2024-01-10T06:05:24;-3.60;99.90
14749;DHT22;7466;53.574;9.976;2024-01-10T06:07:51;-3.60;99.90
14749;DHT22;7466;53.574;9.976;2024-01-10T06:10:19;-3.60;99.90
14749;DHT22;7466;53.574;9.976;2024-01-10T06:12:46;-3.60;99.90
14749;DHT22;7466;53.574;9.976;2024-01-10T06:15:13;-3.60;99.90
14749;DHT22;7466;53.574;9.976;2024-01-10T06:17:40;-3.70;99.90
14749;DHT22;7466;53.574;9.976;2024-01-10T06:20:07;-3.70;99.90
14749;DHT22;7466;53.574;9.976;2024-01-10T06:22:34;-3.70;99.90
14749;DHT22;7466;53.574;9.976;2024-01-10T06:25:01;-3.70;99.90
14749;DHT22;7466;53.574;9.976;2024-01-10T06:27:29;-3.70;99.90
14749;DHT22;7466;53.574;9.976;2024-01-10T06:29:56;-3.70;99.90
14749;DHT22;7466;53.574;9.976;2024-01-10T06:32:23;-3.60;99.90
14749;DHT22;7466;53.574;9.976;2024-01-10T06:34:53;-3.60;99.90
14749;DHT22;7466;53.574;9.976;2024-01-10T06:37:22;-3.60;99.90
14749;DHT22;7466;53.574;9.976;2024-01-10T06:39:49;-3.60;99.90
14749;DHT22;7466;53.574;9.976;2024-01-10T06:42:16;-3.60;99.90
14749;DHT22;7466;53.574;9.976;2024-01-10T06:44:44;-3.60;99.90
14749;DHT22;7466;53.574;9.976;2024-01-10T06:47:11;-3.60;99.90
14749;DHT22;7466;53.574;9.976;2024-01-10T06:49:40;-3.50;99.90
14749;DHT22;7466;53.574;9.976;2024-01-10T06:52:06;-3.50;99.90
14749;DHT22;7466;53.574;9.976;2024-01-10T06:54:36;-3.50;99.90
14749;DHT22;7466;53.574;9.976;2024-01-10T06:57:03;-3.50;99.90
14749;DHT22;7466;53.574;9.976;2024-01-10T06:59:30;-3.50;99.90
14749;DHT22;7466;53.574;9.976;2024-01-10T07:01:58;-3.50;99.90
14749;DHT22;7466;53.574;9.976;2024-01-10T07:04:28;-3.50;99.90
14749;DHT22;7466;53.574;9.976;2024-01-10T07:06:55;-3.50;99.90
14749;DHT22;7466;53.574;9.976;2024-01-10T07:09:22;-3.50;99.90
14749;DHT22;7466;53.574;9.976;2024-01-10T07:11:49;-3.50;99.90
14749;DHT22;7466;53.574;9.976;2024-01-10T07:14:16;-3.50;99.90
14749;DHT22;7466;53.574;9.976;2024-01-10T07:16:43;-3.40;99.90
14749;DHT22;7466;53.574;9.976;2024-01-10T07:19:12;-3.40;99.90
14749;DHT22;7466;53.574;9.976;2024-01-10T07:21:42;-3.50;99.90
14749;DHT22;7466;53.574;9.976;2024-01-10T07:24:09;-3.50;99.90
14749;DHT22;7466;53.574;9.976;2024-01-10T07:26:40;-3.50;99.90
14749;DHT22;7466;53.574;9.976;2024-01-10T07:29:07;-3.50;99.90
14749;DHT22;7466;53.574;9.976;2024-01-10T07:31:35;-3.50;99.90
14749;DHT22;7466;53.574;9.976;2024-01-10T07:34:02;-3.50;99.90
14749;DHT22;7466;53.574;9.976;2024-01-10T07:36:31;-3.60;99.90
14749;DHT22;7466;53.574;9.976;2024-01-10T07:38:59;-3.60;99.90
14749;DHT22;7466;53.574;9.976;2024-01-10T07:41:25;-3.60;99.90
14749;DHT22;7466;53.574;9.976;2024-01-10T07:43:52;-3.50;99.90
14749;DHT22;7466;53.574;9.976;2024-01-10T07:46:19;-3.50;99.90
14749;DHT22;7466;53.574;9.976;2024-01-10T07:48:48;-3.40;99.90
14749;DHT22;7466;53.574;9.976;2024-01-10T07:51:14;-3.40;99.90
14749;DHT22;7466;53.574;9.976;2024-01-10T07:53:42;-3.40;99.90
14749;DHT22;7466;53.574;9.976;2024-01-10T07:56:10;-3.40;99.90
14749;DHT22;7466;53.574;9.976;2024-01-10T07:58:38;-3.40;99.90
14749;DHT22;7466;53.574;9.976;2024-01-10T08:01:05;-3.50;99.90
14749;DHT22;7466;53.574;9.976;2024-01-10T08:03:34;-3.50;99.90
14749;DHT22;7466;53.574;9.976;2024-01-10T08:06:00;-3.50;99.90
14749;DHT22;7466;53.574;9.976;2024-01-10T08:08:27;-3.50;99.90
14749;DHT22;7466;53.574;9.976;2024-01-10T08:10:57;-3.50;99.90
14749;DHT22;7466;53.574;9.976;2024-01-10T08:13:24;-3.50;99.90
14749;DHT22;7466;53.574;9.976;2024-01-10T08:15:51;-3.50;99.90
14749;DHT22;7466;53.574;9.976;2024-01-10T08:18:18;-3.50;99.90
14749;DHT22;7466;53.574;9.976;2024-01-10T08:20:45;-3.50;99.90
14749;DHT22;7466;53.574;9.976;2024-01-10T08:23:14;-3.50;99.90
14749;DHT22;7466;53.574;9.976;2024-01-10T08:25:40;-3.40;99.90
14749;DHT22;7466;53.574;9.976;2024-01-10T08:28:11;-3.30;99.90
14749;DHT22;7466;53.574;9.976;2024-01-10T08:30:38;-3.40;99.90
14749;DHT22;7466;53.574;9.976;2024-01-10T08:33:05;-3.40;99.90
14749;DHT22;7466;53.574;9.976;2024-01-10T08:35:32;-3.40;99.90
14749;DHT22;7466;53.574;9.976;2024-01-10T08:37:59;-3.30;99.90
14749;DHT22;7466;53.574;9.976;2024-01-10T08:40:28;-3.30;99.90
14749;DHT22;7466;53.574;9.976;2024-01-10T08:42:55;-3.30;99.90
14749;DHT22;7466;53.574;9.976;2024-01-10T08:45:23;-3.30;99.90
14749;DHT22;7466;53.574;9.976;2024-01-10T08:47:50;-3.20;99.90
14749;DHT22;7466;53.574;9.976;2024-01-10T08:50:18;-3.20;99.90
14749;DHT22;7466;53.574;9.976;2024-01-10T08:52:45;-3.20;99.90
14749;DHT22;7466;53.574;9.976;2024-01-10T08:55:12;-3.10;99.90
14749;DHT22;7466;53.574;9.976;2024-01-10T08:57:39;-3.20;99.90
14749;DHT22;7466;53.574;9.976;2024-01-10T09:00:16;-3.20;99.90
14749;DHT22;7466;53.574;9.976;2024-01-10T09:02:44;-3.30;99.90
14749;DHT22;7466;53.574;9.976;2024-01-10T09:05:11;-3.30;99.90
14749;DHT22;7466;53.574;9.976;2024-01-10T09:07:37;-3.40;99.90
14749;DHT22;7466;53.574;9.976;2024-01-10T09:10:05;-3.40;99.90
14749;DHT22;7466;53.574;9.976;2024-01-10T09:12:33;-3.40;99.90
14749;DHT22;7466;53.574;9.976;2024-01-10T09:15:00;-3.30;99.90
14749;DHT22;7466;53.574;9.976;2024-01-10T09:17:28;-3.40;99.90
14749;DHT22;7466;53.574;9.976;2024-01-10T09:19:56;-3.30;99.90
14749;DHT22;7466;53.574;9.976;2024-01-10T09:22:28;-3.20;99.90
14749;DHT22;7466;53.574;9.976;2024-01-10T09:24:55;-3.10;99.90
14749;DHT22;7466;53.574;9.976;2024-01-10T09:27:34;-3.10;99.90
14749;DHT22;7466;53.574;9.976;2024-01-10T09:30:02;-3.00;99.90
14749;DHT22;7466;53.574;9.976;2024-01-10T09:32:33;-2.90;99.90
14749;DHT22;7466;53.574;9.976;2024-01-10T09:35:03;-2.80;99.90
14749;DHT22;7466;53.574;9.976;2024-01-10T09:37:29;-2.80;99.90
14749;DHT22;7466;53.574;9.976;2024-01-10T09:39:56;-2.80;99.90
14749;DHT22;7466;53.574;9.976;2024-01-10T09:42:23;-2.80;99.90
14749;DHT22;7466;53.574;9.976;2024-01-10T09:44:51;-2.70;99.90
14749;DHT22;7466;53.574;9.976;2024-01-10T09:47:20;-2.70;99.90
14749;DHT22;7466;53.574;9.976;2024-01-10T09:49:47;-2.50;99.90
14749;DHT22;7466;53.574;9.976;2024-01-10T09:52:24;-2.50;99.90
14749;DHT22;7466;53.574;9.976;2024-01-10T09:54:54;-2.50;99.90
14749;DHT22;7466;53.574;9.976;2024-01-10T09:57:24;-2.50;99.90
14749;DHT22;7466;53.574;9.976;2024-01-10T09:59:51;-2.50;99.90
14749;DHT22;7466;53.574;9.976;2024-01-10T10:02:19;-2.50;99.90
14749;DHT22;7466;53.574;9.976;2024-01-10T10:04:54;-2.40;99.90
14749;DHT22;7466;53.574;9.976;2024-01-10T10:07:24;-2.50;99.90
14749;DHT22;7466;53.574;9.976;2024-01-10T10:09:51;-2.60;99.90
14749;DHT22;7466;53.574;9.976;2024-01-10T10:12:22;-2.60;99.90
14749;DHT22;7466;53.574;9.976;2024-01-10T10:14:49;-2.60;99.90
14749;DHT22;7466;53.574;9.976;2024-01-10T10:17:18;-2.50;99.90
14749;DHT22;7466;53.574;9.976;2024-01-10T10:19:46;-2.40;99.90
14749;DHT22;7466;53.574;9.976;2024-01-10T10:22:13;-2.40;99.90
14749;DHT22;7466;53.574;9.976;2024-01-10T10:24:41;-2.60;99.90
14749;DHT22;7466;53.574;9.976;2024-01-10T10:27:11;-2.80;99.90
14749;DHT22;7466;53.574;9.976;2024-01-10T10:29:38;-2.80;99.90
14749;DHT22;7466;53.574;9.976;2024-01-10T10:32:06;-2.80;99.90
14749;DHT22;7466;53.574;9.976;2024-01-10T10:34:34;-2.80;99.90
14749;DHT22;7466;53.574;9.976;2024-01-10T10:37:01;-2.80;99.90
14749;DHT22;7466;53.574;9.976;2024-01-10T10:39:29;-2.60;99.90
14749;DHT22;7466;53.574;9.976;2024-01-10T10:41:59;-2.60;99.90
14749;DHT22;7466;53.574;9.976;2024-01-10T10:44:29;-2.60;99.90
14749;DHT22;7466;53.574;9.976;2024-01-10T10:47:03;-2.60;99.90
14749;DHT22;7466;53.574;9.976;2024-01-10T10:49:34;-2.60;99.90
14749;DHT22;7466;53.574;9.976;2024-01-10T10:52:04;-2.60;99.90
14749;DHT22;7466;53.574;9.976;2024-01-10T10:54:42;-2.80;99.90
14749;DHT22;7466;53.574;9.976;2024-01-10T10:57:12;-2.90;99.90
14749;DHT22;7466;53.574;9.976;2024-01-10T10:59:41;-2.80;99.90
14749;DHT22;7466;53.574;9.976;2024-01-10T11:02:08;-2.70;99.90
14749;DHT22;7466;53.574;9.976;2024-01-10T11:04:42;-2.70;99.90
14749;DHT22;7466;53.574;9.976;2024-01-10T11:07:09;-2.80;99.90
14749;DHT22;7466;53.574;9.976;2024-01-10T11:09:38;-2.90;99.90
14749;DHT22;7466;53.574;9.976;2024-01-10T11:12:21;-2.80;99.90
14749;DHT22;7466;53.574;9.976;2024-01-10T11:15:11;-2.80;99.90
14749;DHT22;7466;53.574;9.976;2024-01-10T11:20:54;-2.70;99.90
14749;DHT22;7466;53.574;9.976;2024-01-10T11:23:44;-2.60;99.90
14749;DHT22;7466;53.574;9.976;2024-01-10T11:26:13;-2.20;99.90
14749;DHT22;7466;53.574;9.976;2024-01-10T11:28:42;-2.00;99.90
14749;DHT22;7466;53.574;9.976;2024-01-10T11:31:13;-1.80;99.90
14749;DHT22;7466;53.574;9.976;2024-01-10T11:33:41;-2.00;99.90
14749;DHT22;7466;53.574;9.976;2024-01-10T11:36:19;-2.20;99.90
14749;DHT22;7466;53.574;9.976;2024-01-10T11:38:54;-2.00;99.90
14749;DHT22;7466;53.574;9.976;2024-01-10T11:41:27;-1.90;99.90
14749;DHT22;7466;53.574;9.976;2024-01-10T11:44:26;-2.00;99.90
14749;DHT22;7466;53.574;9.976;2024-01-10T11:46:56;-2.00;99.90
14749;DHT22;7466;53.574;9.976;2024-01-10T11:49:24;-2.20;99.90
14749;DHT22;7466;53.574;9.976;2024-01-10T11:51:53;-2.50;99.90
14749;DHT22;7466;53.574;9.976;2024-01-10T11:54:37;-2.70;99.90
14749;DHT22;7466;53.574;9.976;2024-01-10T11:57:08;-2.70;99.90
14749;DHT22;7466;53.574;9.976;2024-01-10T11:59:37;-2.80;99.90
14749;DHT22;7466;53.574;9.976;2024-01-10T12:02:05;-2.90;99.90
14749;DHT22;7466;53.574;9.976;2024-01-10T12:04:32;-2.80;99.90
14749;DHT22;7466;53.574;9.976;2024-01-10T12:07:02;-2.80;99.90
14749;DHT22;7466;53.574;9.976;2024-01-10T12:09:30;-2.90;99.90
14749;DHT22;7466;53.574;9.976;2024-01-10T12:11:58;-2.80;99.90
14749;DHT22;7466;53.574;9.976;2024-01-10T12:14:25;-2.70;99.90
14749;DHT22;7466;53.574;9.976;2024-01-10T12:16:53;-2.70;99.90
14749;DHT22;7466;53.574;9.976;2024-01-10T12:19:21;-2.50;99.90
14749;DHT22;7466;53.574;9.976;2024-01-10T12:21:48;-2.30;99.90
14749;DHT22;7466;53.574;9.976;2024-01-10T12:24:16;-2.30;99.90
14749;DHT22;7466;53.574;9.976;2024-01-10T12:26:44;-2.40;99.90
14749;DHT22;7466;53.574;9.976;2024-01-10T12:29:12;-2.40;99.90
14749;DHT22;7466;53.574;9.976;2024-01-10T12:31:40;-2.30;99.90
14749;DHT22;7466;53.574;9.976;2024-01-10T12:34:12;-2.40;99.90
14749;DHT22;7466;53.574;9.976;2024-01-10T12:36:40;-2.50;99.90
14749;DHT22;7466;53.574;9.976;2024-01-10T12:39:07;-2.30;99.90
14749;DHT22;7466;53.574;9.976;2024-01-10T12:41:34;-2.30;99.90
14749;DHT22;7466;53.574;9.976;2024-01-10T12:44:09;-2.30;99.90
14749;DHT22;7466;53.574;9.976;2024-01-10T12:46:50;-2.40;99.90
14749;DHT22;7466;53.574;9.976;2024-01-10T12:49:19;-2.40;99.90
14749;DHT22;7466;53.574;9.976;2024-01-10T12:51:50;-2.00;99.90
14749;DHT22;7466;53.574;9.976;2024-01-10T12:54:21;-1.90;99.90
14749;DHT22;7466;53.574;9.976;2024-01-10T12:56:48;-2.00;99.90
14749;DHT22;7466;53.574;9.976;2024-01-10T12:59:16;-2.20;99.90
14749;DHT22;7466;53.574;9.976;2024-01-10T13:01:43;-2.30;99.90
14749;DHT22;7466;53.574;9.976;2024-01-10T13:04:10;-2.40;99.90
14749;DHT22;7466;53.574;9.976;2024-01-10T13:06:39;-2.20;99.90
14749;DHT22;7466;53.574;9.976;2024-01-10T13:09:06;-1.90;99.90
14749;DHT22;7466;53.574;9.976;2024-01-10T13:11:35;-1.60;99.90
14749;DHT22;7466;53.574;9.976;2024-01-10T13:14:02;-1.40;99.90
14749;DHT22;7466;53.574;9.976;2024-01-10T13:16:29;-1.50;99.90
14749;DHT22;7466;53.574;9.976;2024-01-10T13:18:56;-1.30;99.90
14749;DHT22;7466;53.574;9.976;2024-01-10T13:21:25;-1.60;99.90
14749;DHT22;7466;53.574;9.976;2024-01-10T13:23:55;-1.50;99.90
14749;DHT22;7466;53.574;9.976;2024-01-10T13:26:23;-1.70;99.90
14749;DHT22;7466;53.574;9.976;2024-01-10T13:28:50;-1.60;99.90
14749;DHT22;7466;53.574;9.976;2024-01-10T13:31:18;-1.30;99.90
14749;DHT22;7466;53.574;9.976;2024-01-10T13:33:45;-1.40;99.90
14749;DHT22;7466;53.574;9.976;2024-01-10T13:36:12;-1.20;99.90
14749;DHT22;7466;53.574;9.976;2024-01-10T13:38:39;-1.20;99.90
14749;DHT22;7466;53.574;9.976;2024-01-10T13:41:10;-1.40;99.90
14749;DHT22;7466;53.574;9.976;2024-01-10T13:43:37;-1.10;99.90
14749;DHT22;7466;53.574;9.976;2024-01-10T13:46:05;-1.20;99.90
14749;DHT22;7466;53.574;9.976;2024-01-10T13:48:33;-1.30;99.90
14749;DHT22;7466;53.574;9.976;2024-01-10T13:51:02;-1.40;99.90
14749;DHT22;7466;53.574;9.976;2024-01-10T13:53:29;-1.30;99.90
14749;DHT22;7466;53.574;9.976;2024-01-10T13:55:56;-1.40;99.90
14749;DHT22;7466;53.574;9.976;2024-01-10T13:58:32;-1.80;99.90
14749;DHT22;7466;53.574;9.976;2024-01-10T14:00:59;-2.20;99.90
14749;DHT22;7466;53.574;9.976;2024-01-10T14:03:27;-2.30;99.90
14749;DHT22;7466;53.574;9.976;2024-01-10T14:05:54;-2.20;99.90
14749;DHT22;7466;53.574;9.976;2024-01-10T14:08:22;-2.10;99.90
14749;DHT22;7466;53.574;9.976;2024-01-10T14:10:50;-2.20;99.90
14749;DHT22;7466;53.574;9.976;2024-01-10T14:13:21;-2.20;99.90
14749;DHT22;7466;53.574;9.976;2024-01-10T14:15:50;-2.10;99.90
14749;DHT22;7466;53.574;9.976;2024-01-10T14:18:17;-2.10;99.90
14749;DHT22;7466;53.574;9.976;2024-01-10T14:20:46;-2.00;99.90
14749;DHT22;7466;53.574;9.976;2024-01-10T14:23:13;-2.00;99.90
14749;DHT22;7466;53.574;9.976;2024-01-10T14:25:43;-2.20;99.90
14749;DHT22;7466;53.574;9.976;2024-01-10T14:28:10;-2.30;99.90
14749;DHT22;7466;53.574;9.976;2024-01-10T14:30:36;-2.50;99.90
14749;DHT22;7466;53.574;9.976;2024-01-10T14:33:05;-2.40;99.90
14749;DHT22;7466;53.574;9.976;2024-01-10T14:35:32;-2.60;99.90
14749;DHT22;7466;53.574;9.976;2024-01-10T14:38:09;-2.60;99.90
14749;DHT22;7466;53.574;9.976;2024-01-10T14:40:40;-2.60;99.90
14749;DHT22;7466;53.574;9.976;2024-01-10T14:43:07;-2.50;99.90
14749;DHT22;7466;53.574;9.976;2024-01-10T14:45:34;-2.50;99.90
14749;DHT22;7466;53.574;9.976;2024-01-10T14:48:08;-2.50;99.90
14749;DHT22;7466;53.574;9.976;2024-01-10T14:50:35;-2.40;99.90
14749;DHT22;7466;53.574;9.976;2024-01-10T14:53:08;-2.30;99.90
14749;DHT22;7466;53.574;9.976;2024-01-10T14:55:35;-2.40;99.90
14749;DHT22;7466;53.574;9.976;2024-01-10T14:58:03;-2.50;99.90
14749;DHT22;7466;53.574;9.976;2024-01-10T15:00:30;-2.50;99.90
14749;DHT22;7466;53.574;9.976;2024-01-10T15:02:57;-2.50;99.90
14749;DHT22;7466;53.574;9.976;2024-01-10T15:05:25;-2.60;99.90
14749;DHT22;7466;53.574;9.976;2024-01-10T15:07:52;-2.70;99.90
14749;DHT22;7466;53.574;9.976;2024-01-10T15:10:19;-2.70;99.90
14749;DHT22;7466;53.574;9.976;2024-01-10T15:12:47;-2.80;99.90
14749;DHT22;7466;53.574;9.976;2024-01-10T15:15:28;-2.70;99.90
14749;DHT22;7466;53.574;9.976;2024-01-10T15:17:55;-2.70;99.90
14749;DHT22;7466;53.574;9.976;2024-01-10T15:20:21;-2.80;99.90
14749;DHT22;7466;53.574;9.976;2024-01-10T15:22:50;-2.80;99.90
14749;DHT22;7466;53.574;9.976;2024-01-10T15:25:17;-2.80;99.90
14749;DHT22;7466;53.574;9.976;2024-01-10T15:27:44;-2.80;99.90
14749;DHT22;7466;53.574;9.976;2024-01-10T15:30:12;-2.80;99.90
14749;DHT22;7466;53.574;9.976;2024-01-10T15:32:39;-2.80;99.90
14749;DHT22;7466;53.574;9.976;2024-01-10T15:35:06;-2.90;99.90
14749;DHT22;7466;53.574;9.976;2024-01-10T15:37:33;-2.90;99.90
14749;DHT22;7466;53.574;9.976;2024-01-10T15:40:02;-2.90;99.90
14749;DHT22;7466;53.574;9.976;2024-01-10T15:42:29;-3.00;99.90
14749;DHT22;7466;53.574;9.976;2024-01-10T15:44:56;-3.10;99.90
14749;DHT22;7466;53.574;9.976;2024-01-10T15:47:23;-3.10;99.90
14749;DHT22;7466;53.574;9.976;2024-01-10T15:49:50;-3.10;99.90
14749;DHT22;7466;53.574;9.976;2024-01-10T15:52:17;-3.20;99.90
14749;DHT22;7466;53.574;9.976;2024-01-10T15:54:45;-3.20;99.90